In Rescue
 
Open Full Screen Window  High Contrast Mode
Wind Gusting 17 knots
12
March 29, 2020 9:30 PM EDT
Weather Information
Wind Direction
  250 °
Wind Speed
  12 kt (14 mph)
Wind Gust
  17 kt (20 mph)
Altimeter
29.91 in
Visibility
10 SM
Temperature
12° C
54° F
Dewpoint
06° C
43° F
Humidity
67%
Sky Condition
Broken @ 7,000 ft
Scattered @ 6,000 ft
VFR

METAR KAXV 300130Z AUTO 25012G17KT 10SM SCT060 BKN070 12/06 A2991 RMK AO2

FAA Disclaimer: The data displayed is for advisory purposes only and is not to be used for flight planning or operations.